createdAt,value
2022-08-22T00:01:29.213Z,101302.16
2022-08-22T00:02:45.054Z,101273.66
2022-08-22T00:02:45.628Z,101297.13
2022-08-22T00:02:54.797Z,101313.38
2022-08-22T00:02:58.169Z,101339.38
2022-08-22T00:03:04.188Z,101345.19
2022-08-22T00:04:04.181Z,101301.50
2022-08-22T00:06:53.847Z,101292.88
2022-08-22T00:09:33.495Z,101301.97
2022-08-22T00:12:23.694Z,101295.38
2022-08-22T00:14:56.883Z,101302.16
2022-08-22T00:17:38.731Z,101304.47
2022-08-22T00:20:13.419Z,101307.59
2022-08-22T00:22:49.503Z,101305.81
2022-08-22T00:25:35.848Z,101307.28
2022-08-22T00:28:06.508Z,101295.50
2022-08-22T00:30:38.195Z,101293.19
2022-08-22T00:33:10.868Z,101302.28
2022-08-22T00:35:45.456Z,101288.91
2022-08-22T00:38:26.456Z,101283.06
2022-08-22T00:41:01.683Z,101276.06
2022-08-22T00:43:31.362Z,101268.97
2022-08-22T00:46:02.745Z,101265.63
2022-08-22T00:48:33.160Z,101269.28
2022-08-22T00:51:32.510Z,101268.63
2022-08-22T00:54:06.887Z,101263.34
2022-08-22T00:56:52.530Z,101264.47
2022-08-22T00:59:25.485Z,101262.69
2022-08-22T01:01:53.871Z,101256.22
2022-08-22T01:04:26.982Z,101252.91
2022-08-22T01:07:03.815Z,101255.72
2022-08-22T01:09:31.497Z,101256.88
2022-08-22T01:11:59.051Z,101256.75
2022-08-22T01:14:35.395Z,101258.00
2022-08-22T01:17:14.701Z,101263.66
2022-08-22T01:20:10.894Z,101264.47
2022-08-22T01:22:40.929Z,101265.63
2022-08-22T01:25:26.409Z,101265.13
2022-08-22T01:28:13.874Z,101272.75
2022-08-22T01:30:47.321Z,101262.31
2022-08-22T01:33:29.675Z,101262.09
2022-08-22T01:36:02.641Z,101281.81
2022-08-22T01:38:45.417Z,101286.66
2022-08-22T01:41:21.470Z,101293.09
2022-08-22T01:44:00.358Z,101305.44
2022-08-22T01:46:46.458Z,101304.06
2022-08-22T01:49:36.876Z,101306.88
2022-08-22T01:52:11.554Z,101300.75
2022-08-22T01:54:50.584Z,101298.88
2022-08-22T01:57:19.490Z,101278.81
2022-08-22T02:00:10.708Z,101277.25
2022-08-22T02:02:56.026Z,101259.41
2022-08-22T02:05:31.996Z,101257.22
2022-08-22T02:07:59.243Z,101251.78
2022-08-22T02:10:44.879Z,101250.97
2022-08-22T02:13:26.596Z,101243.31
2022-08-22T02:16:07.546Z,101241.97
2022-08-22T02:18:45.269Z,101232.69
2022-08-22T02:21:18.285Z,101231.84
2022-08-22T02:23:55.467Z,101235.31
2022-08-22T02:26:26.246Z,101238.13
2022-08-22T02:28:59.320Z,101242.28
2022-08-22T02:31:34.419Z,101239.81
2022-08-22T02:34:03.739Z,101237.28
2022-08-22T02:36:33.731Z,101228.19
2022-08-22T02:39:03.677Z,101229.88
2022-08-22T02:41:33.300Z,101232.50
2022-08-22T02:44:03.507Z,101239.69
2022-08-22T02:46:40.344Z,101228.84
2022-08-22T02:49:07.017Z,101222.78
2022-08-22T02:51:54.019Z,101229.69
2022-08-22T02:57:05.977Z,101238.97
2022-08-22T02:59:40.243Z,101241.03
2022-08-22T03:02:44.686Z,101241.03
2022-08-22T03:05:26.529Z,101238.97
2022-08-22T03:08:03.647Z,101230.31
2022-08-22T03:12:58.742Z,101237.59
2022-08-22T03:15:40.450Z,101244.41
2022-08-22T03:18:33.924Z,101231.47
2022-08-22T03:21:20.833Z,101230.63
2022-08-22T03:23:53.114Z,101231.47
2022-08-22T03:26:26.089Z,101226.44
2022-08-22T03:29:05.557Z,101219.66
2022-08-22T03:31:32.719Z,101234.09
2022-08-22T03:34:16.434Z,101226.91
2022-08-22T03:36:48.821Z,101215.00
2022-08-22T03:39:25.272Z,101216.25
2022-08-22T03:42:00.958Z,101215.19
2022-08-22T03:44:27.653Z,101214.50
2022-08-22T03:47:13.108Z,101233.56
2022-08-22T03:49:50.954Z,101231.88
2022-08-22T03:52:17.831Z,101220.13
2022-08-22T03:54:57.844Z,101230.75
2022-08-22T03:57:36.669Z,101234.50
2022-08-22T04:00:03.433Z,101246.63
2022-08-22T04:02:48.595Z,101245.97
2022-08-22T04:05:21.208Z,101248.50
2022-08-22T04:08:06.973Z,101242.66
2022-08-22T04:10:51.940Z,101234.50
2022-08-22T04:13:27.941Z,101246.94
2022-08-22T04:15:54.741Z,101243.50
2022-08-22T04:18:35.523Z,101242.13
2022-08-22T04:21:08.547Z,101244.63
2022-08-22T04:23:35.319Z,101242.13
2022-08-22T04:26:44.717Z,101243.69
2022-08-22T04:29:18.689Z,101246.81
2022-08-22T04:31:55.073Z,101239.31
2022-08-22T04:34:26.192Z,101240.44
2022-08-22T04:36:58.643Z,101238.81
2022-08-22T04:39:30.689Z,101239.94
2022-08-22T04:42:31.313Z,101241.63
2022-08-22T04:45:02.554Z,101248.06
2022-08-22T04:47:36.662Z,101261.34
2022-08-22T04:50:22.119Z,101265.81
2022-08-22T04:52:49.082Z,101263.91
2022-08-22T04:55:31.134Z,101279.97
2022-08-22T04:58:06.482Z,101282.47
2022-08-22T05:01:06.204Z,101288.13
2022-08-22T05:03:36.782Z,101295.72
2022-08-22T05:06:05.588Z,101285.03
2022-08-22T05:08:34.690Z,101273.00
2022-08-22T05:11:03.337Z,101270.09
2022-08-22T05:13:43.097Z,101260.91
2022-08-22T05:16:14.864Z,101259.09
2022-08-22T05:19:00.733Z,101251.72
2022-08-22T05:21:31.361Z,101251.22
2022-08-22T05:24:04.230Z,101247.00
2022-08-22T05:26:35.804Z,101243.69
2022-08-22T05:29:04.071Z,101247.13
2022-08-22T05:31:33.694Z,101248.19
2022-08-22T05:34:08.724Z,101245.66
2022-08-22T05:36:39.371Z,101241.06
2022-08-22T05:39:10.269Z,101237.03
2022-08-22T05:41:38.418Z,101237.53
2022-08-22T05:44:07.477Z,101237.53
2022-08-22T05:46:36.931Z,101239.31
2022-08-22T05:49:05.097Z,101242.66
2022-08-22T05:51:39.431Z,101244.94
2022-08-22T05:54:12.437Z,101239.84
2022-08-22T05:56:42.303Z,101241.81
2022-08-22T05:59:12.016Z,101234.69
2022-08-22T06:01:52.249Z,101234.41
2022-08-22T06:04:30.420Z,101239.00
2022-08-22T06:07:03.302Z,101239.94
2022-08-22T06:09:35.631Z,101248.19
2022-08-22T06:12:05.539Z,101253.00
2022-08-22T06:14:47.570Z,101258.81
2022-08-22T06:17:20.680Z,101252.34
2022-08-22T06:19:49.773Z,101249.53
2022-08-22T06:22:21.578Z,101247.03
2022-08-22T06:24:50.224Z,101241.41
2022-08-22T06:27:19.387Z,101235.25
2022-08-22T06:29:51.498Z,101242.22
2022-08-22T06:32:44.451Z,101228.78
2022-08-22T06:35:29.511Z,101229.81
2022-08-22T06:37:59.896Z,101222.53
2022-08-22T06:40:28.409Z,101224.00
2022-08-22T06:42:56.191Z,101215.53
2022-08-22T06:45:26.774Z,101213.22
2022-08-22T06:48:00.922Z,101211.25
2022-08-22T06:50:33.458Z,101214.59
2022-08-22T06:53:07.981Z,101203.53
2022-08-22T06:55:36.189Z,101201.13
2022-08-22T06:58:05.312Z,101198.84
2022-08-22T07:00:33.925Z,101206.66
2022-08-22T07:03:06.431Z,101201.66
2022-08-22T07:05:37.911Z,101205.31
2022-08-22T07:08:09.133Z,101206.75
2022-08-22T07:10:45.003Z,101212.28
2022-08-22T07:13:19.486Z,101205.63
2022-08-22T07:15:53.850Z,101205.81
2022-08-22T07:18:25.202Z,101205.00
2022-08-22T07:20:55.217Z,101201.97
2022-08-22T07:23:37.061Z,101195.84
2022-08-22T07:26:22.527Z,101206.66
2022-08-22T07:28:58.479Z,101205.13
2022-08-22T07:31:25.437Z,101195.50
2022-08-22T07:33:54.351Z,101201.34
2022-08-22T07:36:23.385Z,101207.50
2022-08-22T07:39:02.385Z,101203.44
2022-08-22T07:41:36.916Z,101212.94
2022-08-22T07:44:06.336Z,101208.78
2022-08-22T07:46:37.695Z,101216.38
2022-08-22T07:49:09.547Z,101212.19
2022-08-22T07:51:45.215Z,101213.56
2022-08-22T07:54:14.680Z,101213.56
2022-08-22T07:57:01.712Z,101220.34
2022-08-22T07:59:30.445Z,101218.97
2022-08-22T08:01:58.837Z,101221.59
2022-08-22T08:04:29.195Z,101218.47
2022-08-22T08:06:59.324Z,101229.94
2022-08-22T08:09:28.815Z,101221.69
2022-08-22T08:11:55.861Z,101222.31
2022-08-22T08:14:24.402Z,101225.66
2022-08-22T08:16:55.392Z,101228.47
2022-08-22T08:19:22.963Z,101221.06
2022-08-22T08:21:51.475Z,101220.13
2022-08-22T08:24:21.037Z,101229.63
2022-08-22T08:27:10.910Z,101230.03
2022-08-22T08:29:37.680Z,101225.97
2022-08-22T08:32:05.659Z,101229.09
2022-08-22T08:34:35.505Z,101222.53
2022-08-22T08:37:12.769Z,101219.81
2022-08-22T08:39:43.946Z,101223.16
2022-08-22T08:42:29.507Z,101225.97
2022-08-22T08:45:14.838Z,101212.00
2022-08-22T08:47:44.597Z,101194.47
2022-08-22T08:50:14.548Z,101194.88
2022-08-22T08:53:02.076Z,101191.34
2022-08-22T08:55:31.771Z,101175.28
2022-08-22T08:58:05.094Z,101170.78
2022-08-22T09:00:48.884Z,101170.16
2022-08-22T09:03:35.984Z,101183.09
2022-08-22T09:06:29.259Z,101180.91
2022-08-22T09:09:14.476Z,101170.16
2022-08-22T09:12:00.758Z,101173.50
2022-08-22T09:14:36.440Z,101182.13
2022-08-22T09:17:03.112Z,101169.44
2022-08-22T09:19:42.346Z,101181.72
2022-08-22T09:22:14.584Z,101170.66
2022-08-22T09:25:00.163Z,101163.25
2022-08-22T09:27:35.214Z,101175.25
2022-08-22T09:30:11.832Z,101165.88
2022-08-22T09:32:38.555Z,101171.59
2022-08-22T09:35:13.245Z,101171.28
2022-08-22T09:37:49.478Z,101178.25
2022-08-22T09:42:59.140Z,101180.47
2022-08-22T09:45:26.022Z,101178.47
2022-08-22T09:48:07.221Z,101184.34
2022-08-22T09:50:34.418Z,101183.16
2022-08-22T09:53:15.492Z,101177.22
2022-08-22T09:55:50.532Z,101175.72
2022-08-22T09:58:41.506Z,101182.31
2022-08-22T10:01:23.775Z,101180.88
2022-08-22T10:04:09.033Z,101173.88
2022-08-22T10:06:58.291Z,101186.31
2022-08-22T10:09:34.613Z,101192.25
2022-08-22T10:12:12.425Z,101185.13
2022-08-22T10:14:40.794Z,101190.59
2022-08-22T10:17:30.708Z,101191.22
2022-08-22T10:20:04.791Z,101183.81
2022-08-22T10:22:34.180Z,101174.81
2022-08-22T10:25:19.471Z,101182.66
2022-08-22T10:27:48.820Z,101178.47
2022-08-22T10:30:16.286Z,101182.53
2022-08-22T10:32:46.154Z,101177.03
2022-08-22T10:35:33.720Z,101185.97
2022-08-22T10:38:00.876Z,101176.38
2022-08-22T10:40:47.707Z,101175.53
2022-08-22T10:43:28.848Z,101183.38
2022-08-22T10:46:12.367Z,101184.19
2022-08-22T10:48:52.277Z,101181.81
2022-08-22T10:51:18.896Z,101177.22
2022-08-22T10:54:05.980Z,101175.53
2022-08-22T10:56:39.061Z,101171.41
2022-08-22T10:59:19.634Z,101168.78
2022-08-22T11:02:08.194Z,101170.44
2022-08-22T11:04:53.293Z,101184.06
2022-08-22T11:07:29.154Z,101178.56
2022-08-22T11:10:00.107Z,101177.41
2022-08-22T11:12:34.891Z,101176.91
2022-08-22T11:15:13.128Z,101178.06
2022-08-22T11:17:59.050Z,101169.91
2022-08-22T11:20:28.813Z,101182.66
2022-08-22T11:23:12.352Z,101177.41
2022-08-22T11:26:05.244Z,101177.41
2022-08-22T11:28:35.122Z,101172.63
2022-08-22T11:31:07.644Z,101157.38
2022-08-22T11:33:47.349Z,101149.25
2022-08-22T11:36:27.282Z,101158.22
2022-08-22T11:38:57.451Z,101171.16
2022-08-22T11:41:27.442Z,101161.41
2022-08-22T11:44:00.079Z,101167.50
2022-08-22T11:46:41.179Z,101157.69
2022-08-22T11:49:31.742Z,101154.25
2022-08-22T11:54:42.100Z,101148.63
2022-08-22T11:57:13.991Z,101145.28
2022-08-22T11:59:43.483Z,101131.91
2022-08-22T12:02:24.796Z,101120.44
2022-08-22T12:05:03.791Z,101113.13
2022-08-22T12:07:37.207Z,101128.91
2022-08-22T12:10:28.446Z,101131.72
2022-08-22T12:13:03.778Z,101127.72
2022-08-22T12:15:39.311Z,101130.41
2022-08-22T12:18:10.407Z,101123.44
2022-08-22T12:20:55.764Z,101127.72
2022-08-22T12:23:49.240Z,101115.31
2022-08-22T12:26:18.960Z,101106.53
2022-08-22T12:28:54.733Z,101109.34
2022-08-22T12:31:41.659Z,101095.28
2022-08-22T12:34:11.183Z,101086.16
2022-08-22T12:37:00.821Z,101090.13
2022-08-22T12:39:44.463Z,101090.13
2022-08-22T12:42:30.664Z,101085.31
2022-08-22T12:45:00.074Z,101093.97
2022-08-22T12:47:45.497Z,101100.25
2022-08-22T12:50:19.656Z,101107.75
2022-08-22T12:53:10.944Z,101109.91
2022-08-22T12:55:39.181Z,101098.44
2022-08-22T12:58:23.062Z,101096.34
2022-08-22T13:00:52.876Z,101113.91
2022-08-22T13:03:29.670Z,101109.41
2022-08-22T13:06:00.508Z,101115.75
2022-08-22T13:08:27.432Z,101121.19
2022-08-22T13:11:14.642Z,101113.91
2022-08-22T13:13:56.392Z,101115.22
2022-08-22T13:16:24.873Z,101099.16
2022-08-22T13:18:54.885Z,101084.75
2022-08-22T13:21:23.589Z,101089.56
2022-08-22T13:23:53.457Z,101086.75
2022-08-22T13:26:33.601Z,101095.91
2022-08-22T13:32:04.047Z,101095.69
2022-08-22T13:34:38.498Z,101098.84
2022-08-22T13:37:07.921Z,101100.69
2022-08-22T13:39:39.105Z,101100.03
2022-08-22T13:42:07.640Z,101093.41
2022-08-22T13:44:44.237Z,101105.31
2022-08-22T13:47:14.947Z,101113.44
2022-08-22T13:49:53.247Z,101110.31
2022-08-22T13:52:29.275Z,101111.44
2022-08-22T13:54:57.022Z,101100.50
2022-08-22T13:57:44.315Z,101101.97
2022-08-22T14:00:14.231Z,101103.00
2022-08-22T14:03:07.937Z,101105.31
2022-08-22T14:05:40.389Z,101110.97
2022-08-22T14:08:12.858Z,101098.38
2022-08-22T14:10:55.077Z,101100.19
2022-08-22T14:13:27.032Z,101092.38
2022-08-22T14:16:01.560Z,101087.56
2022-08-22T14:18:36.542Z,101092.03
2022-08-22T14:21:40.313Z,101087.56
2022-08-22T14:24:46.661Z,101085.06
2022-08-22T14:27:30.863Z,101086.09
2022-08-22T14:29:59.299Z,101082.78
2022-08-22T14:32:29.686Z,101076.16
2022-08-22T14:35:02.934Z,101071.16
2022-08-22T14:37:33.798Z,101066.34
2022-08-22T14:40:03.752Z,101064.91
2022-08-22T14:42:38.939Z,101063.22
2022-08-22T14:45:22.682Z,101068.53
2022-08-22T14:48:13.950Z,101058.09
2022-08-22T14:50:47.513Z,101053.94
2022-08-22T14:53:22.190Z,101055.09
2022-08-22T14:56:08.108Z,101045.78
2022-08-22T14:58:52.134Z,101053.94
2022-08-22T15:01:21.666Z,101041.00
2022-08-22T15:04:09.005Z,101034.56
2022-08-22T15:06:47.766Z,101042.00
2022-08-22T15:09:34.623Z,101040.34
2022-08-22T15:12:03.822Z,101053.63
2022-08-22T15:14:44.825Z,101046.81
2022-08-22T15:17:33.302Z,101052.44
2022-08-22T15:20:12.200Z,101054.94
2022-08-22T15:22:40.101Z,101052.97
2022-08-22T15:25:21.201Z,101038.88
2022-08-22T15:27:56.604Z,101037.38
2022-08-22T15:30:46.900Z,101027.59
2022-08-22T15:33:39.211Z,101019.63
2022-08-22T15:36:09.832Z,101022.44
2022-08-22T15:38:38.309Z,101018.81
2022-08-22T15:41:24.046Z,101016.81
2022-08-22T15:43:52.403Z,101015.34
2022-08-22T15:46:26.112Z,101010.03
2022-08-22T15:48:55.696Z,101022.97
2022-08-22T15:51:41.074Z,101017.84
2022-08-22T15:54:16.223Z,101015.84
2022-08-22T15:56:52.180Z,101019.84
2022-08-22T15:59:48.186Z,101022.66
2022-08-22T16:02:30.156Z,101016.19
2022-08-22T16:05:08.867Z,101015.03
2022-08-22T16:07:39.392Z,101022.66
2022-08-22T16:10:09.010Z,101016.19
2022-08-22T16:12:41.366Z,101009.72
2022-08-22T16:15:27.948Z,101009.88
2022-08-22T16:17:57.554Z,101001.75
2022-08-22T16:20:24.609Z,101005.41
2022-08-22T16:22:57.360Z,101003.41
2022-08-22T16:25:44.199Z,101010.06
2022-08-22T16:28:28.237Z,100998.28
2022-08-22T16:31:35.524Z,101009.56
2022-08-22T16:34:17.286Z,101001.13
2022-08-22T16:36:49.691Z,101004.25
2022-08-22T16:39:22.207Z,100994.97
2022-08-22T16:41:50.559Z,101001.44
2022-08-22T16:44:29.073Z,101003.41
2022-08-22T16:47:07.898Z,101001.94
2022-08-22T16:49:36.841Z,101002.28
2022-08-22T16:52:21.765Z,101004.78
2022-08-22T16:54:49.914Z,101009.56
2022-08-22T16:57:24.865Z,101016.19
2022-08-22T17:00:01.255Z,101010.06
2022-08-22T17:02:47.064Z,101005.25
2022-08-22T17:05:21.985Z,101010.41
2022-08-22T17:07:56.670Z,101006.75
2022-08-22T17:10:23.603Z,101009.75
2022-08-22T17:12:52.974Z,101007.25
2022-08-22T17:15:38.100Z,101009.88
2022-08-22T17:18:22.884Z,101009.41
2022-08-22T17:20:59.367Z,101005.41
2022-08-22T17:23:39.942Z,100999.13
2022-08-22T17:26:42.224Z,101002.28
2022-08-22T17:29:15.193Z,101005.41
2022-08-22T17:31:44.574Z,100999.75
2022-08-22T17:34:29.443Z,100993.50
2022-08-22T17:37:16.049Z,100997.94
2022-08-22T17:40:01.262Z,100997.78
2022-08-22T17:42:54.525Z,100997.94
2022-08-22T17:45:38.828Z,101003.59
2022-08-22T17:48:14.642Z,101002.28
2022-08-22T17:50:55.038Z,101004.56
2022-08-22T17:53:28.223Z,101014.88
2022-08-22T17:55:55.344Z,101016.03
2022-08-22T17:58:35.681Z,101004.78
2022-08-22T18:01:13.836Z,101007.91
2022-08-22T18:03:43.751Z,101005.09
2022-08-22T18:06:30.130Z,101006.22
2022-08-22T18:09:15.429Z,101007.06
2022-08-22T18:11:49.696Z,101003.75
2022-08-22T18:14:27.907Z,100998.44
2022-08-22T18:16:55.816Z,101002.94
2022-08-22T18:19:34.549Z,100996.44
2022-08-22T18:22:07.997Z,101009.72
2022-08-22T18:24:46.403Z,101017.03
2022-08-22T18:27:29.983Z,100998.94
2022-08-22T18:30:15.858Z,101002.09
2022-08-22T18:32:56.398Z,101004.78
2022-08-22T18:35:33.754Z,101003.75
2022-08-22T18:38:20.561Z,101006.22
2022-08-22T18:41:07.154Z,100998.94
2022-08-22T18:43:37.023Z,101001.94
2022-08-22T18:46:23.855Z,101007.06
2022-08-22T18:49:13.970Z,101010.19
2022-08-22T18:51:38.891Z,101011.25
2022-08-22T18:54:14.199Z,101016.69
2022-08-22T18:56:54.343Z,101023.66
2022-08-22T18:59:39.960Z,101025.97
2022-08-22T19:02:12.787Z,101021.47
2022-08-22T19:04:56.054Z,101019.19
2022-08-22T19:07:35.829Z,101021.03
2022-08-22T19:10:05.769Z,101026.81
2022-08-22T19:12:35.950Z,101023.63
2022-08-22T19:15:28.153Z,101019.19
2022-08-22T19:18:07.288Z,101024.28
2022-08-22T19:20:54.294Z,101022.66
2022-08-22T19:23:33.239Z,101025.00
2022-08-22T19:26:38.338Z,101019.19
2022-08-22T19:29:27.998Z,101022.66
2022-08-22T19:31:56.389Z,101033.09
2022-08-22T19:34:28.396Z,101031.13
2022-08-22T19:37:30.307Z,101039.06
2022-08-22T19:40:11.474Z,101043.84
2022-08-22T19:42:39.972Z,101040.06
2022-08-22T19:45:30.857Z,101050.31
2022-08-22T19:47:59.998Z,101035.91
2022-08-22T19:50:30.889Z,101036.75
2022-08-22T19:52:58.318Z,101042.69
2022-08-22T19:55:34.457Z,101044.03
2022-08-22T19:58:31.744Z,101049.00
2022-08-22T20:01:04.763Z,101042.38
2022-08-22T20:03:50.075Z,101041.88
2022-08-22T20:06:43.156Z,101035.41
2022-08-22T20:09:17.719Z,101038.75
2022-08-22T20:11:47.710Z,101040.41
2022-08-22T20:14:30.008Z,101037.91
2022-08-22T20:16:58.571Z,101040.41
2022-08-22T20:19:37.258Z,101039.06
2022-08-22T20:22:05.944Z,101038.75
2022-08-22T20:24:44.788Z,101033.59
2022-08-22T20:27:20.003Z,101038.22
2022-08-22T20:29:50.403Z,101037.91
2022-08-22T20:32:19.395Z,101046.84
2022-08-22T20:34:48.170Z,101046.09
2022-08-22T20:37:32.420Z,101038.75
2022-08-22T20:40:05.638Z,101036.75
2022-08-22T20:42:35.824Z,101040.41
2022-08-22T20:45:08.529Z,101037.06
2022-08-22T20:47:41.286Z,101039.06
2022-08-22T20:50:12.314Z,101035.41
2022-08-22T20:52:43.055Z,101023.81
2022-08-22T20:55:31.392Z,101030.28
2022-08-22T20:58:04.555Z,101019.84
2022-08-22T21:00:31.958Z,101028.59
2022-08-22T21:03:07.692Z,101019.84
2022-08-22T21:05:38.421Z,101025.81
2022-08-22T21:08:05.267Z,101029.31
2022-08-22T21:10:52.529Z,101018.88
2022-08-22T21:13:23.891Z,101017.50
2022-08-22T21:15:58.791Z,101017.84
2022-08-22T21:18:39.596Z,101021.16
2022-08-22T21:21:17.363Z,101010.59
2022-08-22T21:23:47.842Z,101020.69
2022-08-22T21:26:26.627Z,101018.03
2022-08-22T21:28:59.005Z,101023.66
2022-08-22T21:31:29.140Z,101013.22
2022-08-22T21:33:56.732Z,101021.00
2022-08-22T21:36:25.423Z,101020.28
2022-08-22T21:39:03.670Z,101030.47
2022-08-22T21:41:31.088Z,101032.75
2022-08-22T21:44:17.505Z,101026.75
2022-08-22T21:46:44.564Z,101045.16
2022-08-22T21:49:20.595Z,101029.63
2022-08-22T21:51:48.425Z,101026.44
2022-08-22T21:54:32.046Z,101035.56
2022-08-22T21:57:01.319Z,101037.19
2022-08-22T21:59:52.164Z,101034.91
2022-08-22T22:02:37.499Z,101044.50
2022-08-22T22:05:07.736Z,101031.56
2022-08-22T22:07:36.332Z,101037.19
2022-08-22T22:10:03.278Z,101026.75
2022-08-22T22:12:30.289Z,101034.69
2022-08-22T22:14:57.307Z,101031.94
2022-08-22T22:17:24.122Z,101034.56
2022-08-22T22:19:50.979Z,101032.75
2022-08-22T22:22:18.147Z,101033.25
2022-08-22T22:24:44.988Z,101034.25
2022-08-22T22:27:16.769Z,101025.09
2022-08-22T22:29:44.226Z,101015.63
2022-08-22T22:32:11.176Z,101016.97
2022-08-22T22:34:39.434Z,101010.31
2022-08-22T22:37:10.388Z,101010.81
2022-08-22T22:39:37.423Z,101008.00
2022-08-22T22:42:04.542Z,101016.97
2022-08-22T22:44:31.452Z,101019.59
2022-08-22T22:46:59.171Z,101024.91
2022-08-22T22:49:26.135Z,101038.69
2022-08-22T22:51:53.048Z,101039.84
2022-08-22T22:54:19.977Z,101036.00
2022-08-22T22:56:54.515Z,101038.03
2022-08-22T22:59:26.770Z,101044.66
2022-08-22T23:02:19.567Z,101046.44
2022-08-22T23:04:47.737Z,101047.28
2022-08-22T23:07:15.530Z,101046.63
2022-08-22T23:09:45.136Z,101048.97
2022-08-22T23:12:13.629Z,101054.06
2022-08-22T23:14:40.560Z,101048.75
2022-08-22T23:17:08.231Z,101039.97
2022-08-22T23:19:35.368Z,101045.09
2022-08-22T23:22:02.269Z,101040.81
2022-08-22T23:24:31.463Z,101040.94
2022-08-22T23:26:58.816Z,101035.50
2022-08-22T23:29:26.147Z,101037.69
2022-08-22T23:31:55.441Z,101036.00
2022-08-22T23:34:24.185Z,101032.19
2022-08-22T23:36:52.668Z,101035.84
2022-08-22T23:39:20.290Z,101038.66
2022-08-22T23:41:47.725Z,101042.28
2022-08-22T23:44:15.495Z,101043.09
2022-08-22T23:46:42.954Z,101025.22
2022-08-22T23:49:10.305Z,101035.19
2022-08-22T23:51:37.586Z,101035.84
2022-08-22T23:54:04.878Z,101034.66
2022-08-22T23:56:33.958Z,101021.91
2022-08-22T23:59:01.444Z,101028.72
